sensor_id;sensor_type;location;lat;lon;timestamp;temperature;humidity
20946;DHT22;10632;51.276;7.116;2023-04-05T00:00:57;2.80;99.90
20946;DHT22;10632;51.276;7.116;2023-04-05T00:03:24;2.80;99.90
20946;DHT22;10632;51.276;7.116;2023-04-05T00:05:51;2.80;99.90
20946;DHT22;10632;51.276;7.116;2023-04-05T00:08:20;2.70;99.90
20946;DHT22;10632;51.276;7.116;2023-04-05T00:10:51;2.80;99.90
20946;DHT22;10632;51.276;7.116;2023-04-05T00:13:18;2.80;99.90
20946;DHT22;10632;51.276;7.116;2023-04-05T00:15:46;2.70;99.90
20946;DHT22;10632;51.276;7.116;2023-04-05T00:18:16;2.70;99.90
20946;DHT22;10632;51.276;7.116;2023-04-05T00:20:48;2.70;99.90
20946;DHT22;10632;51.276;7.116;2023-04-05T00:23:15;2.70;99.90
20946;DHT22;10632;51.276;7.116;2023-04-05T00:25:44;2.60;99.90
20946;DHT22;10632;51.276;7.116;2023-04-05T00:28:11;2.60;99.90
20946;DHT22;10632;51.276;7.116;2023-04-05T00:30:38;2.60;99.90
20946;DHT22;10632;51.276;7.116;2023-04-05T00:33:05;2.60;99.90
20946;DHT22;10632;51.276;7.116;2023-04-05T00:35:32;2.60;99.90
20946;DHT22;10632;51.276;7.116;2023-04-05T00:37:59;2.60;99.90
20946;DHT22;10632;51.276;7.116;2023-04-05T00:40:26;2.60;99.90
20946;DHT22;10632;51.276;7.116;2023-04-05T00:42:54;2.60;99.90
20946;DHT22;10632;51.276;7.116;2023-04-05T00:45:21;2.60;99.90
20946;DHT22;10632;51.276;7.116;2023-04-05T00:47:48;2.60;99.90
20946;DHT22;10632;51.276;7.116;2023-04-05T00:50:15;2.60;99.90
20946;DHT22;10632;51.276;7.116;2023-04-05T00:52:43;2.60;99.90
20946;DHT22;10632;51.276;7.116;2023-04-05T00:55:10;2.60;99.90
20946;DHT22;10632;51.276;7.116;2023-04-05T00:57:37;2.60;99.90
20946;DHT22;10632;51.276;7.116;2023-04-05T01:00:07;2.60;99.90
20946;DHT22;10632;51.276;7.116;2023-04-05T01:02:40;2.60;99.90
20946;DHT22;10632;51.276;7.116;2023-04-05T01:05:17;2.60;99.90
20946;DHT22;10632;51.276;7.116;2023-04-05T01:07:49;2.50;99.90
20946;DHT22;10632;51.276;7.116;2023-04-05T01:10:20;2.60;99.90
20946;DHT22;10632;51.276;7.116;2023-04-05T01:12:48;2.60;99.90
20946;DHT22;10632;51.276;7.116;2023-04-05T01:15:16;2.50;99.90
20946;DHT22;10632;51.276;7.116;2023-04-05T01:17:43;2.60;99.90
20946;DHT22;10632;51.276;7.116;2023-04-05T01:20:12;2.50;99.90
20946;DHT22;10632;51.276;7.116;2023-04-05T01:23:06;2.50;99.90
20946;DHT22;10632;51.276;7.116;2023-04-05T01:26:08;2.50;99.90
20946;DHT22;10632;51.276;7.116;2023-04-05T01:28:58;2.50;99.90
20946;DHT22;10632;51.276;7.116;2023-04-05T01:31:40;2.40;99.90
20946;DHT22;10632;51.276;7.116;2023-04-05T01:34:15;2.40;99.90
20946;DHT22;10632;51.276;7.116;2023-04-05T01:36:49;2.40;99.90
20946;DHT22;10632;51.276;7.116;2023-04-05T01:39:19;2.40;99.90
20946;DHT22;10632;51.276;7.116;2023-04-05T01:41:46;2.30;99.90
20946;DHT22;10632;51.276;7.116;2023-04-05T01:44:13;2.30;99.90
20946;DHT22;10632;51.276;7.116;2023-04-05T01:46:42;2.20;99.90
20946;DHT22;10632;51.276;7.116;2023-04-05T01:49:09;2.20;99.90
20946;DHT22;10632;51.276;7.116;2023-04-05T01:51:36;2.10;99.90
20946;DHT22;10632;51.276;7.116;2023-04-05T01:54:06;2.00;99.90
20946;DHT22;10632;51.276;7.116;2023-04-05T01:56:33;2.00;99.90
20946;DHT22;10632;51.276;7.116;2023-04-05T01:59:00;1.90;99.90
20946;DHT22;10632;51.276;7.116;2023-04-05T02:01:28;1.90;99.90
20946;DHT22;10632;51.276;7.116;2023-04-05T02:03:56;1.80;99.90
20946;DHT22;10632;51.276;7.116;2023-04-05T02:06:23;1.70;99.90
20946;DHT22;10632;51.276;7.116;2023-04-05T02:08:50;1.70;99.90
20946;DHT22;10632;51.276;7.116;2023-04-05T02:11:17;1.70;99.90
20946;DHT22;10632;51.276;7.116;2023-04-05T02:13:44;1.70;99.90
20946;DHT22;10632;51.276;7.116;2023-04-05T02:16:12;1.70;99.90
20946;DHT22;10632;51.276;7.116;2023-04-05T02:18:40;1.60;99.90
20946;DHT22;10632;51.276;7.116;2023-04-05T02:21:09;1.60;99.90
20946;DHT22;10632;51.276;7.116;2023-04-05T02:23:36;1.60;99.90
20946;DHT22;10632;51.276;7.116;2023-04-05T02:26:03;1.60;99.90
20946;DHT22;10632;51.276;7.116;2023-04-05T02:28:30;1.60;99.90
20946;DHT22;10632;51.276;7.116;2023-04-05T02:30:57;1.60;99.90
20946;DHT22;10632;51.276;7.116;2023-04-05T02:33:24;1.60;99.90
20946;DHT22;10632;51.276;7.116;2023-04-05T02:35:55;1.50;99.90
20946;DHT22;10632;51.276;7.116;2023-04-05T02:38:23;1.50;99.90
20946;DHT22;10632;51.276;7.116;2023-04-05T02:40:50;1.50;99.90
20946;DHT22;10632;51.276;7.116;2023-04-05T02:43:17;1.50;99.90
20946;DHT22;10632;51.276;7.116;2023-04-05T02:45:44;1.50;99.90
20946;DHT22;10632;51.276;7.116;2023-04-05T02:48:11;1.50;99.90
20946;DHT22;10632;51.276;7.116;2023-04-05T02:50:38;1.50;99.90
20946;DHT22;10632;51.276;7.116;2023-04-05T02:53:05;1.40;99.90
20946;DHT22;10632;51.276;7.116;2023-04-05T02:55:33;1.40;99.90
20946;DHT22;10632;51.276;7.116;2023-04-05T02:58:00;1.40;99.90
20946;DHT22;10632;51.276;7.116;2023-04-05T03:00:27;1.40;99.90
20946;DHT22;10632;51.276;7.116;2023-04-05T03:02:56;1.40;99.90
20946;DHT22;10632;51.276;7.116;2023-04-05T03:05:23;1.40;99.90
20946;DHT22;10632;51.276;7.116;2023-04-05T03:07:50;1.40;99.90
20946;DHT22;10632;51.276;7.116;2023-04-05T03:10:21;1.40;99.90
20946;DHT22;10632;51.276;7.116;2023-04-05T03:12:52;1.40;99.90
20946;DHT22;10632;51.276;7.116;2023-04-05T03:15:18;1.30;99.90
20946;DHT22;10632;51.276;7.116;2023-04-05T03:17:45;1.30;99.90
20946;DHT22;10632;51.276;7.116;2023-04-05T03:20:12;1.30;99.90
20946;DHT22;10632;51.276;7.116;2023-04-05T03:22:39;1.30;99.90
20946;DHT22;10632;51.276;7.116;2023-04-05T03:25:07;1.30;99.90
20946;DHT22;10632;51.276;7.116;2023-04-05T03:27:37;1.20;99.90
20946;DHT22;10632;51.276;7.116;2023-04-05T03:30:07;1.20;99.90
20946;DHT22;10632;51.276;7.116;2023-04-05T03:32:34;1.20;99.90
20946;DHT22;10632;51.276;7.116;2023-04-05T03:35:00;1.20;99.90
20946;DHT22;10632;51.276;7.116;2023-04-05T03:37:27;1.20;99.90
20946;DHT22;10632;51.276;7.116;2023-04-05T03:39:55;1.10;99.90
20946;DHT22;10632;51.276;7.116;2023-04-05T03:42:21;1.10;99.90
20946;DHT22;10632;51.276;7.116;2023-04-05T03:44:51;1.20;99.90
20946;DHT22;10632;51.276;7.116;2023-04-05T03:47:19;1.20;99.90
20946;DHT22;10632;51.276;7.116;2023-04-05T03:49:46;1.20;99.90
20946;DHT22;10632;51.276;7.116;2023-04-05T03:52:13;1.20;99.90
20946;DHT22;10632;51.276;7.116;2023-04-05T03:54:40;1.10;99.90
20946;DHT22;10632;51.276;7.116;2023-04-05T03:57:07;1.10;99.90
20946;DHT22;10632;51.276;7.116;2023-04-05T03:59:34;1.10;99.90
20946;DHT22;10632;51.276;7.116;2023-04-05T04:02:01;1.10;99.90
20946;DHT22;10632;51.276;7.116;2023-04-05T04:04:30;1.10;99.90
20946;DHT22;10632;51.276;7.116;2023-04-05T04:06:57;1.10;99.90
20946;DHT22;10632;51.276;7.116;2023-04-05T04:09:24;1.10;99.90
20946;DHT22;10632;51.276;7.116;2023-04-05T04:11:52;1.10;99.90
20946;DHT22;10632;51.276;7.116;2023-04-05T04:14:19;1.10;99.90
20946;DHT22;10632;51.276;7.116;2023-04-05T04:16:46;1.10;99.90
20946;DHT22;10632;51.276;7.116;2023-04-05T04:19:13;1.10;99.90
20946;DHT22;10632;51.276;7.116;2023-04-05T04:21:41;1.10;99.90
20946;DHT22;10632;51.276;7.116;2023-04-05T04:24:13;1.00;99.90
20946;DHT22;10632;51.276;7.116;2023-04-05T04:26:43;1.00;99.90
20946;DHT22;10632;51.276;7.116;2023-04-05T04:29:10;1.00;99.90
20946;DHT22;10632;51.276;7.116;2023-04-05T04:31:37;1.00;99.90
20946;DHT22;10632;51.276;7.116;2023-04-05T04:34:05;1.00;99.90
20946;DHT22;10632;51.276;7.116;2023-04-05T04:36:32;1.00;99.90
20946;DHT22;10632;51.276;7.116;2023-04-05T04:39:02;1.00;99.90
20946;DHT22;10632;51.276;7.116;2023-04-05T04:41:31;1.00;99.90
20946;DHT22;10632;51.276;7.116;2023-04-05T04:44:00;1.00;99.90
20946;DHT22;10632;51.276;7.116;2023-04-05T04:46:27;1.00;99.90
20946;DHT22;10632;51.276;7.116;2023-04-05T04:48:59;1.00;99.90
20946;DHT22;10632;51.276;7.116;2023-04-05T04:51:30;0.90;99.90
20946;DHT22;10632;51.276;7.116;2023-04-05T04:53:57;0.90;99.90
20946;DHT22;10632;51.276;7.116;2023-04-05T04:56:25;0.90;99.90
20946;DHT22;10632;51.276;7.116;2023-04-05T04:58:54;0.90;99.90
20946;DHT22;10632;51.276;7.116;2023-04-05T05:01:21;0.90;99.90
20946;DHT22;10632;51.276;7.116;2023-04-05T05:03:49;0.90;99.90
20946;DHT22;10632;51.276;7.116;2023-04-05T05:06:16;0.90;99.90
20946;DHT22;10632;51.276;7.116;2023-04-05T05:08:43;0.90;99.90
20946;DHT22;10632;51.276;7.116;2023-04-05T05:11:11;0.90;99.90
20946;DHT22;10632;51.276;7.116;2023-04-05T05:13:40;0.90;99.90
20946;DHT22;10632;51.276;7.116;2023-04-05T05:16:07;0.90;99.90
20946;DHT22;10632;51.276;7.116;2023-04-05T05:18:34;0.90;99.90
20946;DHT22;10632;51.276;7.116;2023-04-05T05:21:01;0.90;99.90
20946;DHT22;10632;51.276;7.116;2023-04-05T05:23:28;0.90;99.90
20946;DHT22;10632;51.276;7.116;2023-04-05T05:25:57;0.90;99.90
20946;DHT22;10632;51.276;7.116;2023-04-05T05:28:25;0.90;99.90
20946;DHT22;10632;51.276;7.116;2023-04-05T05:30:53;0.90;99.90
20946;DHT22;10632;51.276;7.116;2023-04-05T05:33:20;0.90;99.90
20946;DHT22;10632;51.276;7.116;2023-04-05T05:35:48;0.90;99.90
20946;DHT22;10632;51.276;7.116;2023-04-05T05:38:15;0.90;99.90
20946;DHT22;10632;51.276;7.116;2023-04-05T05:40:42;0.90;99.90
20946;DHT22;10632;51.276;7.116;2023-04-05T05:43:09;0.90;99.90
20946;DHT22;10632;51.276;7.116;2023-04-05T05:45:36;0.90;99.90
20946;DHT22;10632;51.276;7.116;2023-04-05T05:48:05;1.00;99.90
20946;DHT22;10632;51.276;7.116;2023-04-05T05:50:31;1.00;99.90
20946;DHT22;10632;51.276;7.116;2023-04-05T05:52:58;1.00;99.90
20946;DHT22;10632;51.276;7.116;2023-04-05T05:55:25;1.10;99.90
20946;DHT22;10632;51.276;7.116;2023-04-05T05:57:53;1.10;99.90
20946;DHT22;10632;51.276;7.116;2023-04-05T06:00:20;1.10;99.90
20946;DHT22;10632;51.276;7.116;2023-04-05T06:02:48;1.20;99.90
20946;DHT22;10632;51.276;7.116;2023-04-05T06:05:16;1.20;99.90
20946;DHT22;10632;51.276;7.116;2023-04-05T06:07:43;1.30;99.90
20946;DHT22;10632;51.276;7.116;2023-04-05T06:10:11;1.30;99.90
20946;DHT22;10632;51.276;7.116;2023-04-05T06:12:37;1.40;99.90
20946;DHT22;10632;51.276;7.116;2023-04-05T06:15:06;1.40;99.90
20946;DHT22;10632;51.276;7.116;2023-04-05T06:17:33;1.40;99.90
20946;DHT22;10632;51.276;7.116;2023-04-05T06:20:07;1.50;99.90
20946;DHT22;10632;51.276;7.116;2023-04-05T06:22:39;1.50;99.90
20946;DHT22;10632;51.276;7.116;2023-04-05T06:25:07;1.60;99.90
20946;DHT22;10632;51.276;7.116;2023-04-05T06:27:35;1.70;99.90
20946;DHT22;10632;51.276;7.116;2023-04-05T06:30:03;1.70;99.90
20946;DHT22;10632;51.276;7.116;2023-04-05T06:32:30;1.80;99.90
20946;DHT22;10632;51.276;7.116;2023-04-05T06:34:57;1.90;99.90
20946;DHT22;10632;51.276;7.116;2023-04-05T06:37:23;1.90;99.90
20946;DHT22;10632;51.276;7.116;2023-04-05T06:39:52;2.00;99.90
20946;DHT22;10632;51.276;7.116;2023-04-05T06:42:19;2.10;99.90
20946;DHT22;10632;51.276;7.116;2023-04-05T06:44:45;2.20;99.90
20946;DHT22;10632;51.276;7.116;2023-04-05T06:47:12;2.30;99.90
20946;DHT22;10632;51.276;7.116;2023-04-05T06:49:39;2.30;99.90
20946;DHT22;10632;51.276;7.116;2023-04-05T06:52:06;2.40;99.90
20946;DHT22;10632;51.276;7.116;2023-04-05T06:54:33;2.50;99.90
20946;DHT22;10632;51.276;7.116;2023-04-05T06:57:04;2.60;99.90
20946;DHT22;10632;51.276;7.116;2023-04-05T06:59:31;2.70;99.90
20946;DHT22;10632;51.276;7.116;2023-04-05T07:01:58;2.70;99.90
20946;DHT22;10632;51.276;7.116;2023-04-05T07:04:24;2.80;99.90
20946;DHT22;10632;51.276;7.116;2023-04-05T07:06:53;2.90;99.90
20946;DHT22;10632;51.276;7.116;2023-04-05T07:09:21;3.00;99.90
20946;DHT22;10632;51.276;7.116;2023-04-05T07:11:49;3.10;99.90
20946;DHT22;10632;51.276;7.116;2023-04-05T07:14:18;3.20;99.90
20946;DHT22;10632;51.276;7.116;2023-04-05T07:16:45;3.30;99.90
20946;DHT22;10632;51.276;7.116;2023-04-05T07:19:12;3.40;99.90
20946;DHT22;10632;51.276;7.116;2023-04-05T07:21:38;3.50;99.90
20946;DHT22;10632;51.276;7.116;2023-04-05T07:24:06;3.60;99.90
20946;DHT22;10632;51.276;7.116;2023-04-05T07:26:33;3.70;99.90
20946;DHT22;10632;51.276;7.116;2023-04-05T07:29:00;3.90;99.90
20946;DHT22;10632;51.276;7.116;2023-04-05T07:31:29;4.00;99.90
20946;DHT22;10632;51.276;7.116;2023-04-05T07:33:56;4.10;99.90
20946;DHT22;10632;51.276;7.116;2023-04-05T07:36:23;4.10;99.90
20946;DHT22;10632;51.276;7.116;2023-04-05T07:38:52;4.20;99.90
20946;DHT22;10632;51.276;7.116;2023-04-05T07:41:19;4.30;99.90
20946;DHT22;10632;51.276;7.116;2023-04-05T07:43:48;4.40;99.90
20946;DHT22;10632;51.276;7.116;2023-04-05T07:46:15;4.50;99.90
20946;DHT22;10632;51.276;7.116;2023-04-05T07:48:45;4.60;99.90
20946;DHT22;10632;51.276;7.116;2023-04-05T07:51:13;4.70;99.90
20946;DHT22;10632;51.276;7.116;2023-04-05T07:53:40;4.80;99.90
20946;DHT22;10632;51.276;7.116;2023-04-05T07:56:08;4.90;99.90
20946;DHT22;10632;51.276;7.116;2023-04-05T07:58:36;4.90;99.90
20946;DHT22;10632;51.276;7.116;2023-04-05T08:01:05;5.00;99.90
20946;DHT22;10632;51.276;7.116;2023-04-05T08:03:32;5.00;99.90
20946;DHT22;10632;51.276;7.116;2023-04-05T08:06:08;5.10;99.90
20946;DHT22;10632;51.276;7.116;2023-04-05T08:08:35;5.20;99.90
20946;DHT22;10632;51.276;7.116;2023-04-05T08:11:02;5.10;99.90
20946;DHT22;10632;51.276;7.116;2023-04-05T08:13:29;5.10;99.90
20946;DHT22;10632;51.276;7.116;2023-04-05T08:15:58;5.10;99.90
20946;DHT22;10632;51.276;7.116;2023-04-05T08:18:25;5.20;99.90
20946;DHT22;10632;51.276;7.116;2023-04-05T08:20:53;5.30;99.90
20946;DHT22;10632;51.276;7.116;2023-04-05T08:23:21;5.30;99.90
20946;DHT22;10632;51.276;7.116;2023-04-05T08:25:49;5.40;99.90
20946;DHT22;10632;51.276;7.116;2023-04-05T08:28:16;5.50;99.90
20946;DHT22;10632;51.276;7.116;2023-04-05T08:30:43;5.50;99.90
20946;DHT22;10632;51.276;7.116;2023-04-05T08:33:11;5.60;99.90
20946;DHT22;10632;51.276;7.116;2023-04-05T08:35:38;5.60;99.90
20946;DHT22;10632;51.276;7.116;2023-04-05T08:38:06;5.80;99.90
20946;DHT22;10632;51.276;7.116;2023-04-05T08:40:39;5.90;99.90
20946;DHT22;10632;51.276;7.116;2023-04-05T08:43:10;5.90;99.90
20946;DHT22;10632;51.276;7.116;2023-04-05T08:45:50;5.90;99.90
20946;DHT22;10632;51.276;7.116;2023-04-05T08:48:18;5.90;99.90
20946;DHT22;10632;51.276;7.116;2023-04-05T08:50:49;6.00;99.90
20946;DHT22;10632;51.276;7.116;2023-04-05T08:53:17;6.00;99.90
20946;DHT22;10632;51.276;7.116;2023-04-05T08:55:48;6.10;99.90
20946;DHT22;10632;51.276;7.116;2023-04-05T08:58:17;6.10;99.90
20946;DHT22;10632;51.276;7.116;2023-04-05T09:00:44;6.20;99.90
20946;DHT22;10632;51.276;7.116;2023-04-05T09:03:15;6.20;99.90
20946;DHT22;10632;51.276;7.116;2023-04-05T09:05:45;6.30;99.90
20946;DHT22;10632;51.276;7.116;2023-04-05T09:08:12;6.30;99.90
20946;DHT22;10632;51.276;7.116;2023-04-05T09:10:40;6.20;99.90
20946;DHT22;10632;51.276;7.116;2023-04-05T09:13:08;6.20;99.90
20946;DHT22;10632;51.276;7.116;2023-04-05T09:15:36;6.30;99.90
20946;DHT22;10632;51.276;7.116;2023-04-05T09:18:03;6.40;99.90
20946;DHT22;10632;51.276;7.116;2023-04-05T09:20:30;6.50;99.90
20946;DHT22;10632;51.276;7.116;2023-04-05T09:22:57;6.50;99.90
20946;DHT22;10632;51.276;7.116;2023-04-05T09:25:35;6.50;99.90
20946;DHT22;10632;51.276;7.116;2023-04-05T09:28:05;6.50;99.90
20946;DHT22;10632;51.276;7.116;2023-04-05T09:30:34;6.50;99.90
20946;DHT22;10632;51.276;7.116;2023-04-05T09:33:02;6.50;99.90
20946;DHT22;10632;51.276;7.116;2023-04-05T09:35:30;6.60;99.90
20946;DHT22;10632;51.276;7.116;2023-04-05T09:37:59;6.60;99.90
20946;DHT22;10632;51.276;7.116;2023-04-05T09:40:40;6.70;99.90
20946;DHT22;10632;51.276;7.116;2023-04-05T09:43:07;6.80;99.90
20946;DHT22;10632;51.276;7.116;2023-04-05T09:45:40;6.90;99.90
20946;DHT22;10632;51.276;7.116;2023-04-05T09:48:07;6.90;99.90
20946;DHT22;10632;51.276;7.116;2023-04-05T09:50:35;6.90;99.90
20946;DHT22;10632;51.276;7.116;2023-04-05T09:53:07;7.00;99.90
20946;DHT22;10632;51.276;7.116;2023-04-05T09:55:35;7.10;99.90
20946;DHT22;10632;51.276;7.116;2023-04-05T09:58:02;7.30;99.90
20946;DHT22;10632;51.276;7.116;2023-04-05T10:00:29;7.40;99.90
20946;DHT22;10632;51.276;7.116;2023-04-05T10:02:58;7.50;99.90
20946;DHT22;10632;51.276;7.116;2023-04-05T10:05:26;7.50;99.90
20946;DHT22;10632;51.276;7.116;2023-04-05T10:07:54;7.50;99.90
20946;DHT22;10632;51.276;7.116;2023-04-05T10:10:24;7.50;99.90
20946;DHT22;10632;51.276;7.116;2023-04-05T10:12:51;7.50;99.80
20946;DHT22;10632;51.276;7.116;2023-04-05T10:15:19;7.60;99.90
20946;DHT22;10632;51.276;7.116;2023-04-05T10:17:47;7.60;99.90
20946;DHT22;10632;51.276;7.116;2023-04-05T10:20:19;7.70;99.60
20946;DHT22;10632;51.276;7.116;2023-04-05T10:22:56;7.70;99.70
20946;DHT22;10632;51.276;7.116;2023-04-05T10:25:30;7.80;99.70
20946;DHT22;10632;51.276;7.116;2023-04-05T10:28:03;7.90;99.90
20946;DHT22;10632;51.276;7.116;2023-04-05T10:30:34;8.20;99.90
20946;DHT22;10632;51.276;7.116;2023-04-05T10:33:09;8.30;98.80
20946;DHT22;10632;51.276;7.116;2023-04-05T10:35:47;8.40;98.20
20946;DHT22;10632;51.276;7.116;2023-04-05T10:38:20;8.50;98.60
20946;DHT22;10632;51.276;7.116;2023-04-05T10:40:49;8.60;99.30
20946;DHT22;10632;51.276;7.116;2023-04-05T10:43:20;8.70;98.20
20946;DHT22;10632;51.276;7.116;2023-04-05T10:45:52;8.80;97.30
20946;DHT22;10632;51.276;7.116;2023-04-05T10:48:32;8.90;98.00
20946;DHT22;10632;51.276;7.116;2023-04-05T10:51:02;9.00;96.80
20946;DHT22;10632;51.276;7.116;2023-04-05T10:53:30;9.00;96.90
20946;DHT22;10632;51.276;7.116;2023-04-05T10:55:58;9.00;97.70
20946;DHT22;10632;51.276;7.116;2023-04-05T10:58:27;9.00;96.20
20946;DHT22;10632;51.276;7.116;2023-04-05T11:00:55;9.10;97.10
20946;DHT22;10632;51.276;7.116;2023-04-05T11:03:44;9.30;97.40
20946;DHT22;10632;51.276;7.116;2023-04-05T11:06:21;9.50;97.40
20946;DHT22;10632;51.276;7.116;2023-04-05T11:08:51;9.80;96.60
20946;DHT22;10632;51.276;7.116;2023-04-05T11:11:21;9.80;95.70
20946;DHT22;10632;51.276;7.116;2023-04-05T11:13:49;9.80;96.40
20946;DHT22;10632;51.276;7.116;2023-04-05T11:16:16;9.90;96.20
20946;DHT22;10632;51.276;7.116;2023-04-05T11:18:44;9.90;95.90
20946;DHT22;10632;51.276;7.116;2023-04-05T11:21:21;10.00;96.80
20946;DHT22;10632;51.276;7.116;2023-04-05T11:24:02;10.10;96.90
20946;DHT22;10632;51.276;7.116;2023-04-05T11:26:32;10.30;95.50
20946;DHT22;10632;51.276;7.116;2023-04-05T11:28:59;10.40;94.80
20946;DHT22;10632;51.276;7.116;2023-04-05T11:31:26;10.40;95.10
20946;DHT22;10632;51.276;7.116;2023-04-05T11:33:55;10.50;95.00
20946;DHT22;10632;51.276;7.116;2023-04-05T11:36:37;10.70;94.90
20946;DHT22;10632;51.276;7.116;2023-04-05T11:39:25;10.80;95.00
20946;DHT22;10632;51.276;7.116;2023-04-05T11:41:55;11.00;94.20
20946;DHT22;10632;51.276;7.116;2023-04-05T11:44:23;11.00;93.90
20946;DHT22;10632;51.276;7.116;2023-04-05T11:46:50;10.90;94.20
20946;DHT22;10632;51.276;7.116;2023-04-05T11:49:21;10.80;94.50
20946;DHT22;10632;51.276;7.116;2023-04-05T11:51:52;10.70;94.00
20946;DHT22;10632;51.276;7.116;2023-04-05T11:54:37;10.70;93.80
20946;DHT22;10632;51.276;7.116;2023-04-05T11:57:04;10.70;94.40
20946;DHT22;10632;51.276;7.116;2023-04-05T11:59:33;10.80;93.80
20946;DHT22;10632;51.276;7.116;2023-04-05T12:02:02;10.80;93.80
20946;DHT22;10632;51.276;7.116;2023-04-05T12:04:30;10.70;94.40
20946;DHT22;10632;51.276;7.116;2023-04-05T12:07:13;11.00;94.70
20946;DHT22;10632;51.276;7.116;2023-04-05T12:10:00;11.10;94.20
20946;DHT22;10632;51.276;7.116;2023-04-05T12:12:27;11.20;93.90
20946;DHT22;10632;51.276;7.116;2023-04-05T12:15:00;11.10;93.60
20946;DHT22;10632;51.276;7.116;2023-04-05T12:17:45;11.10;94.60
20946;DHT22;10632;51.276;7.116;2023-04-05T12:20:14;11.30;94.30
20946;DHT22;10632;51.276;7.116;2023-04-05T12:22:43;11.40;94.30
20946;DHT22;10632;51.276;7.116;2023-04-05T12:25:11;11.50;94.50
20946;DHT22;10632;51.276;7.116;2023-04-05T12:27:39;11.40;94.20
20946;DHT22;10632;51.276;7.116;2023-04-05T12:30:12;11.40;94.80
20946;DHT22;10632;51.276;7.116;2023-04-05T12:32:46;11.30;94.10
20946;DHT22;10632;51.276;7.116;2023-04-05T12:35:15;11.40;94.20
20946;DHT22;10632;51.276;7.116;2023-04-05T12:37:44;11.60;95.10
20946;DHT22;10632;51.276;7.116;2023-04-05T12:40:11;11.70;93.70
20946;DHT22;10632;51.276;7.116;2023-04-05T12:42:39;11.60;93.80
20946;DHT22;10632;51.276;7.116;2023-04-05T12:45:09;11.50;94.70
20946;DHT22;10632;51.276;7.116;2023-04-05T12:47:47;11.50;95.10
20946;DHT22;10632;51.276;7.116;2023-04-05T12:50:16;11.70;94.70
20946;DHT22;10632;51.276;7.116;2023-04-05T12:52:54;12.00;95.10
20946;DHT22;10632;51.276;7.116;2023-04-05T12:55:22;12.30;95.20
20946;DHT22;10632;51.276;7.116;2023-04-05T12:57:50;12.50;94.80
20946;DHT22;10632;51.276;7.116;2023-04-05T13:00:19;12.30;94.40
20946;DHT22;10632;51.276;7.116;2023-04-05T13:02:49;12.10;96.20
20946;DHT22;10632;51.276;7.116;2023-04-05T13:05:19;12.10;97.10
20946;DHT22;10632;51.276;7.116;2023-04-05T13:07:45;12.10;96.80
20946;DHT22;10632;51.276;7.116;2023-04-05T13:10:14;12.00;96.90
20946;DHT22;10632;51.276;7.116;2023-04-05T13:12:41;11.90;98.40
20946;DHT22;10632;51.276;7.116;2023-04-05T13:15:09;11.90;97.70
20946;DHT22;10632;51.276;7.116;2023-04-05T13:17:36;12.00;98.00
20946;DHT22;10632;51.276;7.116;2023-04-05T13:20:04;12.20;98.70
20946;DHT22;10632;51.276;7.116;2023-04-05T13:22:32;12.20;97.20
20946;DHT22;10632;51.276;7.116;2023-04-05T13:24:59;11.90;97.90
20946;DHT22;10632;51.276;7.116;2023-04-05T13:27:28;11.60;98.60
20946;DHT22;10632;51.276;7.116;2023-04-05T13:29:55;11.40;98.60
20946;DHT22;10632;51.276;7.116;2023-04-05T13:32:22;11.40;98.90
20946;DHT22;10632;51.276;7.116;2023-04-05T13:34:49;11.50;98.80
20946;DHT22;10632;51.276;7.116;2023-04-05T13:37:16;11.40;98.20
20946;DHT22;10632;51.276;7.116;2023-04-05T13:39:43;11.20;98.90
20946;DHT22;10632;51.276;7.116;2023-04-05T13:42:10;11.10;99.10
20946;DHT22;10632;51.276;7.116;2023-04-05T13:44:38;11.00;99.70
20946;DHT22;10632;51.276;7.116;2023-04-05T13:47:05;10.90;99.00
20946;DHT22;10632;51.276;7.116;2023-04-05T13:49:32;10.70;99.60
20946;DHT22;10632;51.276;7.116;2023-04-05T13:52:00;10.70;99.90
20946;DHT22;10632;51.276;7.116;2023-04-05T13:54:27;10.70;99.90
20946;DHT22;10632;51.276;7.116;2023-04-05T13:56:53;10.70;99.90
20946;DHT22;10632;51.276;7.116;2023-04-05T13:59:21;10.80;99.90
20946;DHT22;10632;51.276;7.116;2023-04-05T14:01:50;10.70;99.80
20946;DHT22;10632;51.276;7.116;2023-04-05T14:04:17;10.60;99.90
20946;DHT22;10632;51.276;7.116;2023-04-05T14:06:44;10.50;99.90
20946;DHT22;10632;51.276;7.116;2023-04-05T14:09:12;10.50;99.90
20946;DHT22;10632;51.276;7.116;2023-04-05T14:11:38;10.50;99.90
20946;DHT22;10632;51.276;7.116;2023-04-05T14:14:05;10.40;99.90
20946;DHT22;10632;51.276;7.116;2023-04-05T14:16:32;10.40;99.90
20946;DHT22;10632;51.276;7.116;2023-04-05T14:19:01;10.40;99.90
20946;DHT22;10632;51.276;7.116;2023-04-05T14:21:28;10.30;99.90
20946;DHT22;10632;51.276;7.116;2023-04-05T14:23:55;10.20;99.90
20946;DHT22;10632;51.276;7.116;2023-04-05T14:26:23;10.30;99.90
20946;DHT22;10632;51.276;7.116;2023-04-05T14:28:51;10.20;99.90
20946;DHT22;10632;51.276;7.116;2023-04-05T14:31:18;10.30;99.90
20946;DHT22;10632;51.276;7.116;2023-04-05T14:33:45;10.30;99.90
20946;DHT22;10632;51.276;7.116;2023-04-05T14:36:14;10.40;99.90
20946;DHT22;10632;51.276;7.116;2023-04-05T14:38:40;10.40;99.90
20946;DHT22;10632;51.276;7.116;2023-04-05T14:41:07;10.20;99.90
20946;DHT22;10632;51.276;7.116;2023-04-05T14:43:35;10.40;99.90
20946;DHT22;10632;51.276;7.116;2023-04-05T14:46:03;10.40;99.90
20946;DHT22;10632;51.276;7.116;2023-04-05T14:48:30;10.50;99.90
20946;DHT22;10632;51.276;7.116;2023-04-05T14:50:58;10.50;99.90
20946;DHT22;10632;51.276;7.116;2023-04-05T14:53:27;10.40;99.90
20946;DHT22;10632;51.276;7.116;2023-04-05T14:55:54;10.40;99.90
20946;DHT22;10632;51.276;7.116;2023-04-05T14:58:21;10.40;99.90
20946;DHT22;10632;51.276;7.116;2023-04-05T15:00:49;10.40;99.90
20946;DHT22;10632;51.276;7.116;2023-04-05T15:03:16;10.40;99.90
20946;DHT22;10632;51.276;7.116;2023-04-05T15:05:44;10.40;99.90
20946;DHT22;10632;51.276;7.116;2023-04-05T15:08:14;10.40;99.90
20946;DHT22;10632;51.276;7.116;2023-04-05T15:10:42;10.30;99.90
20946;DHT22;10632;51.276;7.116;2023-04-05T15:13:10;10.30;99.90
20946;DHT22;10632;51.276;7.116;2023-04-05T15:15:37;10.30;99.90
20946;DHT22;10632;51.276;7.116;2023-04-05T15:18:05;10.20;99.90
20946;DHT22;10632;51.276;7.116;2023-04-05T15:20:32;10.30;99.90
20946;DHT22;10632;51.276;7.116;2023-04-05T15:23:00;10.20;99.90
20946;DHT22;10632;51.276;7.116;2023-04-05T15:25:27;10.30;99.90
20946;DHT22;10632;51.276;7.116;2023-04-05T15:27:55;10.30;99.90
20946;DHT22;10632;51.276;7.116;2023-04-05T15:30:23;10.30;99.90
20946;DHT22;10632;51.276;7.116;2023-04-05T15:32:52;10.30;99.90
20946;DHT22;10632;51.276;7.116;2023-04-05T15:35:19;10.30;99.90
20946;DHT22;10632;51.276;7.116;2023-04-05T15:37:46;10.30;99.90
20946;DHT22;10632;51.276;7.116;2023-04-05T15:40:13;10.30;99.90
20946;DHT22;10632;51.276;7.116;2023-04-05T15:42:40;10.40;99.90
20946;DHT22;10632;51.276;7.116;2023-04-05T15:45:09;10.50;99.90
20946;DHT22;10632;51.276;7.116;2023-04-05T15:47:37;10.50;99.90
20946;DHT22;10632;51.276;7.116;2023-04-05T15:50:05;10.30;99.90
20946;DHT22;10632;51.276;7.116;2023-04-05T15:52:32;10.40;99.90